Airfield :
LOGIN :

Register | Disclaimer

   EN    FR    IT 

 










Legend :    VFR   Marginal VFR   IFR   Intensive IFR   Very Intensive IFR
Visi :
Ceiling :
>= 8 km
>= 3000ft
5 to 8 km
1000 to 3000 ft
1500m to 5 km
500 to 1000 ft
800 to 1500m
200 to 500 ft
< 800m
< 200 ft
Symbols :   Thunderstorms  Fog  Heavy snow  Heavy precipitations  Wind > 20 kt
SIGMETs :     Misc.  Thunderstorms  Icing  Turbulence  Mountain Waves  Volcanic Ashes






- Airport Elevation : 306 ft
- IATA code : EMA


EGNX - Nottingham East Midlands

CURRENT METAR :
  • 080150Z 21025KT 9999 OVC011 10/09 Q0995

EXPIRED METARs :
  • 080120Z 21028KT 9999 BKN011 10/09 Q0995
  • 080050Z 20027G37KT 9999 -RA BKN011 09/08 Q0996 RERA
  • 080020Z 20025G36KT 4600 RA BKN011 09/08 Q0997
  • 072350Z 20024KT 6000 RA BKN012 09/08 Q0998

TAF TAF EGNX
Valid from the 08 at 00:00 until the 09 at 00:00 UTC


072301Z 0800/0824 20020KT 9999 -RA BKN012
TEMPO 0800/0804 21023G38KT 6000 RA BKN018
PROB30
TEMPO 0800/0804 4000 +RA RADZ BKN009
BECMG 0804/0807 26014KT NSW SCT025
TEMPO 0807/0820 26020G30KT 7000 SHRA
TEMPO 0820/0824 21020G30KT 7000 SHRA BKN014
PROB30
TEMPO 0821/0824 4000 +SHRA
ATIS : +44 1332 852 852 (ext 3201)



MET'MAP, your aeronautical weather chart ! - Copyright ORBIFLY December 2007 - Disclaimer

ORBIFLY MET'MAP TEAM :

Programming & Development : Alexandra Zaïnal
Concept & original design : Baudouin d'Aumeries
Assistance for programming : Marc-Olivier Méhu
Technical & hardware support : Manuel Goepfert

Contact : metmap@orbifly.com




SOURCES & CREDITS :

   NOAA